KDKX

Knoxville Downtown Island Airport

Knoxville, Tennessee, USA
METAR KDKX 230755Z AUTO 00000KT 1/4SM FG OVC002 12/12 A3036 RMK A01
Observed Flight Rules
Feb-23 @ 07:55 UTC (21 minutes ago) Instrument Flight Rules
Wind Visibility Clouds Conditions
Calm 1/4 miles
  • Overcast at 200' AGL
  • Fog
Temperatures Readings
Current 12°C / 54°F
Dewpoint 12°C / 54°F
Humidity 100%
Altimeter 30.36" Hg
Pressure 1028 hPa
Elevation 254
METAR KDKX 230755Z AUTO 00000KT 1/4SM FG OVC002 12/12 A3036 RMK A01
Observed Flight Rules
Feb-23 @ 07:55 UTC
(21 minutes ago)
LIFR
Wind Visibility
Calm 1/4 miles
Clouds
  • Overcast at 200' AGL
Conditions
  • Fog
Temperature Dewpoint
12°C / 54°F 12°C / 54°F
Humidity Altimeter Pressure
100% 30.36" Hg 1028 hPa